Time;durP1;ratioP1;P1;durP2;ratioP2;P2;SDS_P1;SDS_P2;PMS_P1;PMS_P2;Temp;Humidity;BMP_temperature;BMP_pressure;BME280_temperature;BME280_humidity;BME280_pressure;Samples;Min_cycle;Max_cycle;Signal;HPM_P1;HPM_P2
2022/09/24 00:02:03;;;;;;;16.63;7.47;;;;;;;;;;5031453;28;20025;-71
2022/09/24 00:04:30;;;;;;;14.93;7.55;;;;;;;;;;5031908;28;20040;-69
2022/09/24 00:06:56;;;;;;;16.73;7.40;;;;;;;;;;5031672;28;20445;-70
2022/09/24 00:09:22;;;;;;;18.17;7.93;;;;;;;;;;5031724;28;20388;-68
2022/09/24 00:11:49;;;;;;;17.27;7.95;;;;;;;;;;5031479;28;20021;-70
2022/09/24 00:14:16;;;;;;;12.45;7.45;;;;;;;;;;5031580;28;20104;-68
2022/09/24 00:16:43;;;;;;;14.25;7.40;;;;;;;;;;5031392;28;20095;-69
2022/09/24 00:19:09;;;;;;;13.90;7.47;;;;;;;;;;5031662;28;20029;-69
2022/09/24 00:21:36;;;;;;;13.15;7.00;;;;;;;;;;5033131;28;20199;-69
2022/09/24 00:24:10;;;;;;;14.88;7.40;;;;;;;;;;5034151;28;20116;-70
2022/09/24 00:26:48;;;;;;;13.65;7.45;;;;;;;;;;5033321;28;20030;-70
2022/09/24 00:29:16;;;;;;;12.38;7.07;;;;;;;;;;5031977;28;20048;-69
2022/09/24 00:31:42;;;;;;;18.77;7.40;;;;;;;;;;5031893;28;20105;-69
2022/09/24 00:34:09;;;;;;;11.82;6.53;;;;;;;;;;5032843;28;20090;-69
2022/09/24 00:36:35;;;;;;;14.40;7.28;;;;;;;;;;5035346;28;20036;-69
2022/09/24 00:39:01;;;;;;;14.00;7.07;;;;;;;;;;5045486;28;20033;-70
2022/09/24 00:41:28;;;;;;;12.02;6.47;;;;;;;;;;5042999;28;20037;-69
2022/09/24 00:43:54;;;;;;;18.85;6.32;;;;;;;;;;5045529;28;20029;-68
2022/09/24 00:46:20;;;;;;;12.85;6.30;;;;;;;;;;5043291;28;20040;-68
2022/09/24 00:48:47;;;;;;;13.20;6.82;;;;;;;;;;5041210;28;20022;-68
2022/09/24 00:51:15;;;;;;;11.70;6.55;;;;;;;;;;5042959;28;20022;-69
2022/09/24 00:53:41;;;;;;;13.80;6.78;;;;;;;;;;5043898;28;20021;-70
2022/09/24 00:56:08;;;;;;;14.15;6.57;;;;;;;;;;5045484;28;20025;-68
2022/09/24 00:58:34;;;;;;;12.27;6.45;;;;;;;;;;5044902;28;20060;-69
2022/09/24 01:01:04;;;;;;;13.35;6.68;;;;;;;;;;5044346;28;20029;-70
2022/09/24 01:03:32;;;;;;;12.43;7.20;;;;;;;;;;5053019;28;20029;-70
2022/09/24 01:05:58;;;;;;;13.10;6.75;;;;;;;;;;5053296;28;20036;-71
2022/09/24 01:08:24;;;;;;;14.90;6.80;;;;;;;;;;5045623;28;20116;-70
2022/09/24 01:11:09;;;;;;;16.80;7.28;;;;;;;;;;5056149;28;20030;-70
2022/09/24 01:13:54;;;;;;;17.90;6.70;;;;;;;;;;5056170;28;20083;-71
2022/09/24 01:16:38;;;;;;;12.82;6.80;;;;;;;;;;5052196;28;20491;-72
2022/09/24 01:19:23;;;;;;;21.95;7.88;;;;;;;;;;5047255;28;20359;-70
2022/09/24 01:21:56;;;;;;;16.60;7.40;;;;;;;;;;5034249;28;20418;-68
2022/09/24 01:24:36;;;;;;;14.77;7.38;;;;;;;;;;5034546;28;20032;-70
2022/09/24 01:27:18;;;;;;;11.98;6.63;;;;;;;;;;5033912;28;20029;-71
2022/09/24 01:29:48;;;;;;;13.82;7.15;;;;;;;;;;5034296;28;20021;-70
2022/09/24 01:32:22;;;;;;;14.52;7.28;;;;;;;;;;5034255;28;20382;-70
2022/09/24 01:34:51;;;;;;;12.13;6.68;;;;;;;;;;5034129;28;20033;-68
2022/09/24 01:37:18;;;;;;;11.38;6.60;;;;;;;;;;5033220;28;20096;-69
2022/09/24 01:39:45;;;;;;;9.95;6.38;;;;;;;;;;5033105;28;20026;-69
2022/09/24 01:42:11;;;;;;;12.23;6.68;;;;;;;;;;5032997;28;20663;-70
2022/09/24 01:44:40;;;;;;;14.13;6.88;;;;;;;;;;5032885;28;20048;-69
2022/09/24 01:47:07;;;;;;;13.25;7.75;;;;;;;;;;5032416;28;20033;-68
2022/09/24 01:49:33;;;;;;;13.07;7.00;;;;;;;;;;5032703;28;20108;-69
2022/09/24 01:52:02;;;;;;;12.02;6.97;;;;;;;;;;5032798;28;20096;-68
2022/09/24 01:54:34;;;;;;;13.90;7.82;;;;;;;;;;5033815;28;20372;-69
2022/09/24 01:57:08;;;;;;;14.85;8.38;;;;;;;;;;5032453;28;20113;-69
2022/09/24 01:59:38;;;;;;;13.90;7.50;;;;;;;;;;5033152;28;20252;-68
2022/09/24 02:02:18;;;;;;;12.05;7.18;;;;;;;;;;5032324;28;20044;-70
2022/09/24 02:04:46;;;;;;;17.13;7.93;;;;;;;;;;5032642;28;20474;-70
2022/09/24 02:07:20;;;;;;;13.95;7.47;;;;;;;;;;5031989;28;20029;-69
2022/09/24 02:09:46;;;;;;;11.93;7.18;;;;;;;;;;5032616;28;20099;-70
2022/09/24 02:12:18;;;;;;;12.20;7.20;;;;;;;;;;5032758;28;20351;-68
2022/09/24 02:14:48;;;;;;;15.10;7.40;;;;;;;;;;5032506;28;20482;-69
2022/09/24 02:17:15;;;;;;;17.08;7.35;;;;;;;;;;5032312;28;20091;-68
2022/09/24 02:19:42;;;;;;;12.63;7.10;;;;;;;;;;5032292;28;20049;-69
2022/09/24 02:22:09;;;;;;;13.48;7.50;;;;;;;;;;5032204;28;20033;-69
2022/09/24 02:24:49;;;;;;;12.02;6.97;;;;;;;;;;5032170;28;20056;-69
2022/09/24 02:27:16;;;;;;;14.57;7.35;;;;;;;;;;5031688;28;20555;-69
2022/09/24 02:29:43;;;;;;;14.05;6.65;;;;;;;;;;5035558;28;20580;-69
2022/09/24 02:32:11;;;;;;;17.17;8.10;;;;;;;;;;5032931;28;20028;-69
2022/09/24 02:34:43;;;;;;;12.65;7.45;;;;;;;;;;5032574;28;20021;-70
2022/09/24 02:37:11;;;;;;;11.48;7.72;;;;;;;;;;5032614;28;20108;-70
2022/09/24 02:39:37;;;;;;;12.57;7.65;;;;;;;;;;5036796;28;20029;-71
2022/09/24 02:42:04;;;;;;;15.80;7.53;;;;;;;;;;5020610;28;20443;-71
2022/09/24 02:44:30;;;;;;;11.98;7.28;;;;;;;;;;5038236;28;20032;-70
2022/09/24 02:46:56;;;;;;;14.70;7.57;;;;;;;;;;5038985;28;20085;-70
2022/09/24 02:49:22;;;;;;;13.77;7.85;;;;;;;;;;5039152;28;20489;-70
2022/09/24 02:51:48;;;;;;;14.27;7.90;;;;;;;;;;5036892;28;20053;-70
2022/09/24 02:54:15;;;;;;;14.10;7.80;;;;;;;;;;5036602;28;20021;-70
2022/09/24 02:56:41;;;;;;;11.70;7.35;;;;;;;;;;5033036;28;20029;-70
2022/09/24 02:59:07;;;;;;;19.58;8.25;;;;;;;;;;5032354;28;20356;-70
2022/09/24 03:01:33;;;;;;;13.35;8.20;;;;;;;;;;5031534;28;20428;-71
2022/09/24 03:03:59;;;;;;;12.77;8.10;;;;;;;;;;5031839;28;20105;-70
2022/09/24 03:06:25;;;;;;;15.23;8.82;;;;;;;;;;5031741;28;20451;-70
2022/09/24 03:08:54;;;;;;;15.95;8.52;;;;;;;;;;5032500;28;20391;-70
2022/09/24 03:11:21;;;;;;;13.15;8.25;;;;;;;;;;5033265;28;20026;-71
2022/09/24 03:13:47;;;;;;;16.65;9.45;;;;;;;;;;5016424;28;20022;-70
2022/09/24 03:16:13;;;;;;;18.92;10.10;;;;;;;;;;5033249;28;20021;-70
2022/09/24 03:18:39;;;;;;;16.33;10.02;;;;;;;;;;5032001;28;20104;-70
2022/09/24 03:21:10;;;;;;;21.80;11.45;;;;;;;;;;5032329;28;20427;-70
2022/09/24 03:23:36;;;;;;;17.48;10.90;;;;;;;;;;5033173;28;20029;-71
2022/09/24 03:26:02;;;;;;;19.05;10.35;;;;;;;;;;5033058;28;20033;-71
2022/09/24 03:28:28;;;;;;;15.88;9.00;;;;;;;;;;5032866;28;20026;-70
2022/09/24 03:31:01;;;;;;;12.63;8.07;;;;;;;;;;5032362;28;20160;-70
2022/09/24 03:33:34;;;;;;;15.15;8.88;;;;;;;;;;5035620;28;20075;-69
2022/09/24 03:36:01;;;;;;;20.67;8.40;;;;;;;;;;5014767;28;20025;-69
2022/09/24 03:38:28;;;;;;;10.80;7.18;;;;;;;;;;5032165;28;20030;-70
2022/09/24 03:40:54;;;;;;;14.55;7.88;;;;;;;;;;5031980;28;20021;-70
2022/09/24 03:43:20;;;;;;;12.93;7.45;;;;;;;;;;5032301;28;20029;-70
2022/09/24 03:45:48;;;;;;;14.15;7.68;;;;;;;;;;5032212;28;20025;-70
2022/09/24 03:48:14;;;;;;;10.98;7.10;;;;;;;;;;5032196;28;20026;-70
2022/09/24 03:50:40;;;;;;;14.80;7.82;;;;;;;;;;5032588;28;20036;-70
2022/09/24 03:53:06;;;;;;;13.30;8.25;;;;;;;;;;5032434;28;20026;-70
2022/09/24 03:55:32;;;;;;;12.00;8.25;;;;;;;;;;5035705;28;20049;-71
2022/09/24 03:57:58;;;;;;;16.77;8.63;;;;;;;;;;5035898;28;20040;-71
2022/09/24 04:00:24;;;;;;;16.13;7.82;;;;;;;;;;5037877;28;20053;-70
2022/09/24 04:02:50;;;;;;;13.73;8.32;;;;;;;;;;5039054;28;20104;-70
2022/09/24 04:05:16;;;;;;;13.02;8.23;;;;;;;;;;5039714;28;20057;-71
2022/09/24 04:07:43;;;;;;;14.35;8.95;;;;;;;;;;5040521;28;20040;-70
2022/09/24 04:10:09;;;;;;;21.55;12.95;;;;;;;;;;5045895;28;20041;-70
2022/09/24 04:12:35;;;;;;;21.10;11.68;;;;;;;;;;5045355;28;20036;-70
2022/09/24 04:15:01;;;;;;;18.50;10.20;;;;;;;;;;5044044;28;20044;-70
2022/09/24 04:17:30;;;;;;;16.75;10.27;;;;;;;;;;5044508;28;20058;-70
2022/09/24 04:19:56;;;;;;;16.42;9.90;;;;;;;;;;5035963;28;20097;-72
2022/09/24 04:22:21;;;;;;;18.67;10.63;;;;;;;;;;5015190;28;20083;-69
2022/09/24 04:24:47;;;;;;;20.88;13.10;;;;;;;;;;5032108;28;20040;-70
2022/09/24 04:27:14;;;;;;;21.23;12.90;;;;;;;;;;5031408;28;20033;-69
2022/09/24 04:29:40;;;;;;;20.77;12.93;;;;;;;;;;5033546;28;20018;-71
2022/09/24 04:32:06;;;;;;;23.80;13.30;;;;;;;;;;5017866;28;20021;-71
2022/09/24 04:34:32;;;;;;;25.25;14.30;;;;;;;;;;5039137;28;20547;-71
2022/09/24 04:36:58;;;;;;;21.23;13.60;;;;;;;;;;5046230;28;20026;-71
2022/09/24 04:39:26;;;;;;;23.10;16.13;;;;;;;;;;5054277;28;20036;-71
2022/09/24 04:41:52;;;;;;;27.48;17.00;;;;;;;;;;5052633;28;20077;-70
2022/09/24 04:44:18;;;;;;;33.40;18.38;;;;;;;;;;5051771;28;20132;-71
2022/09/24 04:46:44;;;;;;;25.80;17.70;;;;;;;;;;5058631;28;20029;-71
2022/09/24 04:49:10;;;;;;;29.77;17.77;;;;;;;;;;5052172;28;20044;-70
2022/09/24 04:51:36;;;;;;;29.40;18.25;;;;;;;;;;5034946;28;20033;-70
2022/09/24 04:54:02;;;;;;;27.90;17.77;;;;;;;;;;5034827;28;20033;-70
2022/09/24 04:56:29;;;;;;;34.22;19.15;;;;;;;;;;5034617;28;20052;-70
2022/09/24 04:58:56;;;;;;;28.73;17.95;;;;;;;;;;5034933;28;20033;-70
2022/09/24 05:01:22;;;;;;;30.83;18.83;;;;;;;;;;5016853;28;20029;-69
2022/09/24 05:03:48;;;;;;;32.58;18.75;;;;;;;;;;5034747;28;20026;-70
2022/09/24 05:06:14;;;;;;;31.10;19.17;;;;;;;;;;5034966;28;20119;-70
2022/09/24 05:08:40;;;;;;;31.10;19.45;;;;;;;;;;5035004;28;20116;-70
2022/09/24 05:11:06;;;;;;;27.65;18.92;;;;;;;;;;5035061;28;20030;-70
2022/09/24 05:13:34;;;;;;;31.42;19.40;;;;;;;;;;5035236;28;20018;-70
2022/09/24 05:16:00;;;;;;;32.17;19.77;;;;;;;;;;5034609;28;20057;-70
2022/09/24 05:18:26;;;;;;;37.72;20.75;;;;;;;;;;5034856;28;20033;-70
2022/09/24 05:20:52;;;;;;;33.13;19.38;;;;;;;;;;5035061;28;20493;-69
2022/09/24 05:23:18;;;;;;;32.78;20.88;;;;;;;;;;5034260;28;20041;-70
2022/09/24 05:28:31;;;;;;;;;;;;;;;;;;5034540;28;20494;-69
2022/09/24 05:30:58;;;;;;;34.40;22.45;;;;;;;;;;5034227;28;20407;-69
2022/09/24 05:33:23;;;;;;;42.05;23.65;;;;;;;;;;5034813;28;20021;-69
2022/09/24 05:35:53;;;;;;;34.13;23.40;;;;;;;;;;5016413;28;20646;-69
2022/09/24 05:38:19;;;;;;;35.00;23.00;;;;;;;;;;5034059;28;20490;-69
2022/09/24 05:40:48;;;;;;;38.92;22.92;;;;;;;;;;5033612;28;20029;-70
2022/09/24 05:43:15;;;;;;;35.75;23.33;;;;;;;;;;5034065;28;20022;-70
2022/09/24 05:45:42;;;;;;;39.28;24.92;;;;;;;;;;5033727;28;20053;-70
2022/09/24 05:48:07;;;;;;;35.72;23.70;;;;;;;;;;5033808;28;20036;-70
2022/09/24 05:50:33;;;;;;;34.65;23.77;;;;;;;;;;5033730;28;20025;-70
2022/09/24 05:53:00;;;;;;;43.83;24.65;;;;;;;;;;5033750;28;20021;-70
2022/09/24 05:55:26;;;;;;;34.05;22.88;;;;;;;;;;5033571;28;20030;-70
2022/09/24 05:57:52;;;;;;;39.40;25.77;;;;;;;;;;5033824;28;20430;-69
2022/09/24 06:00:18;;;;;;;36.40;23.65;;;;;;;;;;5033677;28;20021;-69
2022/09/24 06:02:44;;;;;;;38.75;24.65;;;;;;;;;;5033837;28;20033;-70
2022/09/24 06:05:11;;;;;;;39.45;24.73;;;;;;;;;;5033403;28;20034;-69
2022/09/24 06:07:37;;;;;;;38.20;24.67;;;;;;;;;;5033494;28;20112;-69
2022/09/24 06:10:04;;;;;;;34.15;22.58;;;;;;;;;;5034629;28;20045;-70
2022/09/24 06:12:33;;;;;;;38.20;24.27;;;;;;;;;;5034898;28;20387;-70
2022/09/24 06:14:59;;;;;;;36.60;22.95;;;;;;;;;;5035589;28;20079;-69
2022/09/24 06:17:26;;;;;;;34.90;22.67;;;;;;;;;;5034463;28;20028;-69
2022/09/24 06:19:52;;;;;;;38.45;23.27;;;;;;;;;;5033191;28;20053;-70
2022/09/24 06:22:19;;;;;;;36.28;22.38;;;;;;;;;;5033043;28;20100;-71
2022/09/24 06:24:45;;;;;;;36.88;23.42;;;;;;;;;;5034173;28;20029;-68
2022/09/24 06:27:11;;;;;;;35.80;22.83;;;;;;;;;;5015169;28;20124;-69
2022/09/24 06:29:37;;;;;;;30.25;20.13;;;;;;;;;;5033469;28;20029;-70
2022/09/24 06:32:03;;;;;;;33.92;20.85;;;;;;;;;;5033164;28;20624;-74
2022/09/24 06:34:29;;;;;;;35.65;20.98;;;;;;;;;;5030866;28;20087;-70
2022/09/24 06:36:55;;;;;;;34.03;20.42;;;;;;;;;;5033550;28;20486;-70
2022/09/24 06:39:23;;;;;;;28.13;19.73;;;;;;;;;;5036187;28;20052;-68
2022/09/24 06:41:50;;;;;;;27.40;18.58;;;;;;;;;;5033736;28;20029;-69
2022/09/24 06:44:16;;;;;;;30.48;19.35;;;;;;;;;;5033631;28;20087;-69
2022/09/24 06:46:42;;;;;;;28.05;18.25;;;;;;;;;;5033065;28;20103;-69
2022/09/24 06:49:08;;;;;;;29.10;18.75;;;;;;;;;;5033242;28;20026;-69
2022/09/24 06:51:34;;;;;;;24.27;16.95;;;;;;;;;;5032215;28;20018;-68
2022/09/24 06:54:00;;;;;;;26.80;17.13;;;;;;;;;;5035296;28;20048;-68
2022/09/24 06:56:26;;;;;;;26.88;16.67;;;;;;;;;;5033775;28;20363;-69
2022/09/24 06:58:53;;;;;;;24.70;16.98;;;;;;;;;;5033762;28;20083;-68
2022/09/24 07:01:18;;;;;;;30.95;17.70;;;;;;;;;;5033239;28;20017;-69
2022/09/24 07:03:44;;;;;;;31.50;17.88;;;;;;;;;;5033182;28;20386;-70
2022/09/24 07:06:10;;;;;;;28.60;17.45;;;;;;;;;;5032577;28;20101;-70
2022/09/24 07:08:36;;;;;;;28.90;16.63;;;;;;;;;;5032672;28;20506;-70
2022/09/24 07:11:02;;;;;;;31.75;19.33;;;;;;;;;;5032801;28;20425;-70
2022/09/24 07:13:29;;;;;;;28.70;18.58;;;;;;;;;;5032781;28;20030;-71
2022/09/24 07:15:55;;;;;;;36.95;21.70;;;;;;;;;;5032224;28;20101;-69
2022/09/24 07:18:21;;;;;;;31.27;20.85;;;;;;;;;;5032346;28;20052;-70
2022/09/24 07:20:54;;;;;;;31.45;20.17;;;;;;;;;;5032075;28;20021;-69
2022/09/24 07:23:20;;;;;;;37.05;24.67;;;;;;;;;;5032410;28;20029;-70
2022/09/24 07:25:46;;;;;;;44.85;26.88;;;;;;;;;;5032014;28;20501;-71
2022/09/24 07:28:14;;;;;;;33.40;22.58;;;;;;;;;;5032341;28;20025;-69
2022/09/24 07:30:40;;;;;;;36.35;20.25;;;;;;;;;;5033943;28;20021;-70
2022/09/24 07:33:07;;;;;;;37.03;22.10;;;;;;;;;;5032496;28;20014;-70
2022/09/24 07:35:33;;;;;;;35.85;22.90;;;;;;;;;;5032050;28;20076;-72
2022/09/24 07:38:04;;;;;;;32.88;21.17;;;;;;;;;;5031841;28;20029;-70
2022/09/24 07:40:30;;;;;;;36.10;22.60;;;;;;;;;;5031781;28;20075;-69
2022/09/24 07:42:57;;;;;;;35.92;22.80;;;;;;;;;;5031757;28;20036;-70
2022/09/24 07:45:23;;;;;;;34.13;21.88;;;;;;;;;;5031692;28;20057;-68
2022/09/24 07:47:58;;;;;;;32.40;21.92;;;;;;;;;;5031725;28;20029;-69
2022/09/24 07:50:25;;;;;;;36.25;23.38;;;;;;;;;;5031754;28;20022;-70
2022/09/24 07:52:51;;;;;;;34.75;22.77;;;;;;;;;;5031956;28;20429;-71
2022/09/24 07:55:17;;;;;;;42.03;28.05;;;;;;;;;;5032111;28;20025;-70
2022/09/24 07:57:50;;;;;;;34.50;22.42;;;;;;;;;;5032026;28;20040;-68
2022/09/24 08:00:17;;;;;;;33.33;22.98;;;;;;;;;;5032081;28;20033;-70
2022/09/24 08:02:43;;;;;;;32.90;21.40;;;;;;;;;;5033019;28;20194;-72
2022/09/24 08:05:09;;;;;;;29.83;21.45;;;;;;;;;;5036236;28;20437;-71
2022/09/24 08:07:35;;;;;;;30.73;21.40;;;;;;;;;;5035660;28;20041;-71
2022/09/24 08:10:01;;;;;;;29.63;20.08;;;;;;;;;;5036477;28;20022;-70
2022/09/24 08:12:27;;;;;;;30.98;21.10;;;;;;;;;;5035991;28;20024;-72
2022/09/24 08:14:53;;;;;;;35.97;22.73;;;;;;;;;;5036051;28;20028;-77
2022/09/24 08:17:19;;;;;;;30.73;20.95;;;;;;;;;;5035870;28;20029;-75
2022/09/24 08:19:45;;;;;;;37.25;23.88;;;;;;;;;;5036193;28;20036;-72
2022/09/24 08:22:13;;;;;;;39.05;23.00;;;;;;;;;;5036344;28;20029;-71
2022/09/24 08:24:39;;;;;;;31.50;21.92;;;;;;;;;;5036866;28;20049;-72
2022/09/24 08:27:05;;;;;;;36.92;22.02;;;;;;;;;;5036078;28;20021;-73
2022/09/24 08:29:31;;;;;;;34.38;21.98;;;;;;;;;;5036218;28;20380;-71
2022/09/24 08:31:57;;;;;;;44.92;24.60;;;;;;;;;;5035765;28;20026;-69
2022/09/24 08:34:23;;;;;;;35.22;22.35;;;;;;;;;;5035849;28;20027;-72
2022/09/24 08:36:49;;;;;;;38.00;24.35;;;;;;;;;;5035923;28;20105;-73
2022/09/24 08:39:15;;;;;;;34.50;22.38;;;;;;;;;;5036123;28;20061;-72
2022/09/24 08:41:52;;;;;;;32.08;22.38;;;;;;;;;;5036569;28;20033;-74
2022/09/24 08:47:21;;;;;;;40.45;25.75;;;;;;;;;;5035548;28;20078;-73
2022/09/24 08:47:23;;;;;;;38.40;24.73;;;;;;;;;;5035620;28;20109;-71
2022/09/24 08:49:54;;;;;;;42.75;26.08;;;;;;;;;;5035587;28;20367;-70
2022/09/24 08:52:29;;;;;;;41.63;25.58;;;;;;;;;;5034560;28;20474;-70
2022/09/24 08:54:56;;;;;;;36.20;23.90;;;;;;;;;;5035075;28;20438;-69
2022/09/24 08:57:22;;;;;;;33.92;23.88;;;;;;;;;;5034914;28;20112;-72
2022/09/24 08:59:52;;;;;;;34.55;24.02;;;;;;;;;;5034929;28;20501;-71
2022/09/24 09:02:21;;;;;;;36.15;24.65;;;;;;;;;;5035927;28;20097;-70
2022/09/24 09:05:02;;;;;;;39.13;27.35;;;;;;;;;;5035244;28;20021;-70
2022/09/24 09:07:31;;;;;;;51.03;34.28;;;;;;;;;;5035396;28;20363;-70
2022/09/24 09:10:03;;;;;;;37.80;25.13;;;;;;;;;;5034046;28;20029;-71
2022/09/24 09:12:42;;;;;;;35.30;24.05;;;;;;;;;;5033942;28;20021;-69
2022/09/24 09:15:13;;;;;;;39.80;25.60;;;;;;;;;;5034673;28;20021;-70
2022/09/24 09:17:46;;;;;;;34.83;23.95;;;;;;;;;;5033887;28;20474;-69
2022/09/24 09:20:38;;;;;;;35.92;23.33;;;;;;;;;;5035090;28;20030;-70
2022/09/24 09:23:27;;;;;;;38.10;24.77;;;;;;;;;;5030312;28;20045;-71
2022/09/24 09:25:58;;;;;;;35.10;24.33;;;;;;;;;;5035193;28;20148;-70
2022/09/24 09:28:28;;;;;;;36.22;23.33;;;;;;;;;;5036058;28;20033;-73
2022/09/24 09:30:59;;;;;;;34.15;23.75;;;;;;;;;;5036140;28;20453;-70
2022/09/24 09:33:28;;;;;;;38.13;26.08;;;;;;;;;;5034894;28;20022;-70
2022/09/24 09:36:14;;;;;;;34.53;24.40;;;;;;;;;;5034246;28;20033;-70
2022/09/24 09:39:00;;;;;;;35.17;24.02;;;;;;;;;;5034814;28;20077;-69
2022/09/24 09:41:34;;;;;;;34.97;23.45;;;;;;;;;;5024343;28;20406;-69
2022/09/24 09:44:01;;;;;;;33.63;24.45;;;;;;;;;;5034566;28;20029;-69
2022/09/24 09:46:32;;;;;;;34.40;23.95;;;;;;;;;;5034094;28;20036;-69
2022/09/24 09:48:59;;;;;;;33.65;23.10;;;;;;;;;;5041302;28;20030;-72
2022/09/24 09:51:26;;;;;;;47.40;29.95;;;;;;;;;;5035436;28;20026;-72
2022/09/24 09:53:58;;;;;;;39.60;27.13;;;;;;;;;;5034162;28;20029;-70
2022/09/24 09:56:27;;;;;;;43.85;30.08;;;;;;;;;;5041467;28;20021;-71
2022/09/24 09:59:01;;;;;;;35.58;25.45;;;;;;;;;;5036085;28;20028;-70
2022/09/24 10:01:31;;;;;;;34.17;23.92;;;;;;;;;;5034017;28;20497;-72
2022/09/24 10:04:02;;;;;;;35.25;25.73;;;;;;;;;;5035000;28;20075;-71
2022/09/24 10:06:32;;;;;;;38.58;24.67;;;;;;;;;;5037226;28;20075;-71
2022/09/24 10:09:07;;;;;;;33.42;24.45;;;;;;;;;;5035358;28;20095;-72
2022/09/24 10:11:33;;;;;;;31.85;23.08;;;;;;;;;;5033874;28;20045;-70
2022/09/24 10:14:05;;;;;;;34.92;24.88;;;;;;;;;;5033976;28;20037;-71
2022/09/24 10:16:35;;;;;;;33.88;23.92;;;;;;;;;;5032045;28;20022;-71
2022/09/24 10:19:01;;;;;;;37.63;25.52;;;;;;;;;;5033801;28;20028;-75
2022/09/24 10:21:33;;;;;;;35.08;24.70;;;;;;;;;;5033971;28;20025;-69
2022/09/24 10:23:59;;;;;;;38.22;26.58;;;;;;;;;;5032893;28;20026;-71
2022/09/24 10:26:35;;;;;;;36.83;27.08;;;;;;;;;;5034171;28;20109;-71
2022/09/24 10:31:47;;;;;;;42.63;28.00;;;;;;;;;;5036818;28;20028;-71
2022/09/24 10:34:27;;;;;;;41.80;28.92;;;;;;;;;;5034051;28;20025;-71
2022/09/24 10:37:03;;;;;;;50.33;31.70;;;;;;;;;;5033358;28;20060;-70
2022/09/24 10:39:30;;;;;;;45.25;29.00;;;;;;;;;;5032852;28;20029;-71
2022/09/24 10:41:57;;;;;;;49.70;30.08;;;;;;;;;;5033977;28;20030;-69
2022/09/24 10:44:24;;;;;;;49.15;29.02;;;;;;;;;;5034065;28;20033;-70
2022/09/24 10:46:50;;;;;;;49.40;30.00;;;;;;;;;;5036704;28;20029;-71
2022/09/24 10:49:16;;;;;;;50.00;31.38;;;;;;;;;;5034435;28;20497;-71
2022/09/24 10:51:45;;;;;;;46.72;29.70;;;;;;;;;;5033647;28;20034;-70
2022/09/24 10:54:14;;;;;;;48.53;30.85;;;;;;;;;;5035446;28;20021;-71
2022/09/24 10:56:47;;;;;;;42.53;28.83;;;;;;;;;;5034521;28;20018;-70
2022/09/24 10:59:26;;;;;;;52.03;31.92;;;;;;;;;;5036559;28;20450;-70
2022/09/24 11:02:05;;;;;;;46.90;30.85;;;;;;;;;;5033840;28;20022;-69
2022/09/24 11:04:38;;;;;;;51.88;33.75;;;;;;;;;;5040871;28;20120;-70
2022/09/24 11:07:23;;;;;;;50.88;31.88;;;;;;;;;;5033401;28;20037;-69
2022/09/24 11:09:55;;;;;;;50.40;32.60;;;;;;;;;;5032460;28;20044;-69
2022/09/24 11:12:32;;;;;;;48.97;30.35;;;;;;;;;;5033113;28;20021;-72
2022/09/24 11:15:05;;;;;;;49.45;33.00;;;;;;;;;;5033284;28;20040;-70
2022/09/24 11:17:32;;;;;;;48.58;32.45;;;;;;;;;;5032701;28;20467;-70
2022/09/24 11:20:05;;;;;;;51.05;32.70;;;;;;;;;;5034369;28;20030;-70
2022/09/24 11:23:00;;;;;;;53.38;34.10;;;;;;;;;;5034622;28;20095;-69
2022/09/24 11:25:29;;;;;;;53.47;33.08;;;;;;;;;;5019331;28;20051;-70
2022/09/24 11:27:55;;;;;;;49.30;32.00;;;;;;;;;;5032508;28;20025;-69
2022/09/24 11:30:23;;;;;;;48.05;31.77;;;;;;;;;;5033033;28;20419;-71
2022/09/24 11:33:00;;;;;;;50.28;32.17;;;;;;;;;;5032468;28;20032;-71
2022/09/24 11:35:26;;;;;;;49.58;32.85;;;;;;;;;;5032554;28;20032;-71
2022/09/24 11:37:59;;;;;;;49.05;31.58;;;;;;;;;;5032132;28;20108;-76
2022/09/24 11:40:38;;;;;;;53.45;32.67;;;;;;;;;;5033374;28;20053;-71
2022/09/24 11:43:07;;;;;;;47.47;31.65;;;;;;;;;;5032714;28;20061;-69
2022/09/24 11:45:33;;;;;;;47.85;32.28;;;;;;;;;;5032243;28;20108;-70
2022/09/24 11:48:25;;;;;;;54.03;32.63;;;;;;;;;;5032339;28;20083;-73
2022/09/24 11:51:11;;;;;;;54.45;34.92;;;;;;;;;;5030097;28;20137;-68
2022/09/24 11:53:42;;;;;;;46.30;32.38;;;;;;;;;;5032672;28;20028;-70
2022/09/24 11:56:11;;;;;;;50.38;34.47;;;;;;;;;;5032630;28;20120;-71
2022/09/24 11:58:49;;;;;;;53.95;34.67;;;;;;;;;;5033990;28;20068;-70
2022/09/24 12:01:19;;;;;;;47.22;32.60;;;;;;;;;;5031889;28;20032;-70
2022/09/24 12:03:57;;;;;;;53.78;33.65;;;;;;;;;;5030712;28;20050;-69
2022/09/24 12:06:26;;;;;;;52.92;34.88;;;;;;;;;;5031650;28;20065;-71
2022/09/24 12:09:02;;;;;;;51.63;35.33;;;;;;;;;;5021506;23;20048;-73
2022/09/24 12:11:36;;;;;;;55.17;34.85;;;;;;;;;;5016962;28;20085;-74
2022/09/24 12:14:07;;;;;;;57.88;33.58;;;;;;;;;;5022033;28;20030;-75
2022/09/24 12:16:36;;;;;;;55.45;33.10;;;;;;;;;;5029297;28;20029;-72
2022/09/24 12:19:23;;;;;;;53.08;34.47;;;;;;;;;;5020806;28;20324;-73
2022/09/24 12:21:51;;;;;;;54.13;33.28;;;;;;;;;;5014314;28;20057;-74
2022/09/24 12:24:36;;;;;;;55.45;31.45;;;;;;;;;;5014565;28;20079;-74
2022/09/24 12:27:06;;;;;;;47.90;31.85;;;;;;;;;;5020312;28;20506;-74
2022/09/24 12:35:32;;;;;;;51.42;33.85;;;;;;;;;;5015444;28;20100;-74
2022/09/24 12:38:24;;;;;;;52.70;33.20;;;;;;;;;;4995417;28;20030;-73
2022/09/24 12:40:50;;;;;;;53.10;32.83;;;;;;;;;;4965163;28;20041;-76
2022/09/24 12:43:30;;;;;;;54.45;33.17;;;;;;;;;;4977104;28;20026;-76
2022/09/24 12:45:58;;;;;;;50.40;33.90;;;;;;;;;;4994121;28;20026;-76
2022/09/24 12:48:24;;;;;;;57.38;35.65;;;;;;;;;;4995016;28;20037;-74
2022/09/24 12:51:01;;;;;;;53.58;33.42;;;;;;;;;;4997186;28;20034;-72
2022/09/24 12:53:33;;;;;;;54.92;35.00;;;;;;;;;;4979368;28;20165;-74
2022/09/24 12:55:59;;;;;;;54.03;32.75;;;;;;;;;;4996587;28;20034;-75
2022/09/24 12:58:42;;;;;;;62.72;36.13;;;;;;;;;;5005520;28;20066;-76
2022/09/24 13:01:08;;;;;;;50.17;31.30;;;;;;;;;;4997059;28;20041;-77
2022/09/24 13:03:36;;;;;;;50.10;32.70;;;;;;;;;;5002676;28;20026;-75
2022/09/24 13:06:03;;;;;;;45.72;30.00;;;;;;;;;;5010765;28;20030;-76
2022/09/24 13:08:40;;;;;;;50.97;31.88;;;;;;;;;;5011721;28;20025;-74
2022/09/24 13:11:24;;;;;;;54.17;34.47;;;;;;;;;;5014753;28;20084;-75
2022/09/24 13:14:01;;;;;;;47.03;31.77;;;;;;;;;;5015533;28;20022;-75
2022/09/24 13:16:28;;;;;;;52.92;33.25;;;;;;;;;;5014904;28;20030;-74
2022/09/24 13:18:58;;;;;;;52.08;33.30;;;;;;;;;;5028801;28;20034;-74
2022/09/24 13:21:25;;;;;;;54.55;35.55;;;;;;;;;;5025179;28;20026;-75
2022/09/24 13:23:52;;;;;;;47.00;32.38;;;;;;;;;;5024638;28;20026;-75
2022/09/24 13:26:24;;;;;;;47.70;32.40;;;;;;;;;;5020031;28;20026;-76
2022/09/24 13:29:13;;;;;;;48.47;31.80;;;;;;;;;;5022045;28;20108;-75
2022/09/24 13:31:39;;;;;;;48.47;32.42;;;;;;;;;;5000655;28;20076;-75
2022/09/24 13:34:20;;;;;;;48.65;33.72;;;;;;;;;;5015567;28;20025;-74
2022/09/24 13:36:54;;;;;;;62.50;36.45;;;;;;;;;;5016067;28;20378;-75
2022/09/24 13:39:22;;;;;;;46.13;31.58;;;;;;;;;;5016485;28;20041;-75
2022/09/24 13:42:07;;;;;;;47.08;30.83;;;;;;;;;;5000813;28;20080;-75
2022/09/24 13:44:39;;;;;;;50.45;33.72;;;;;;;;;;5018902;28;20113;-75
2022/09/24 13:47:11;;;;;;;49.50;32.80;;;;;;;;;;4998491;28;20041;-76
2022/09/24 13:49:41;;;;;;;52.75;33.65;;;;;;;;;;5000818;28;20037;-75
2022/09/24 13:52:25;;;;;;;52.83;34.60;;;;;;;;;;5016892;28;20037;-76
2022/09/24 13:54:53;;;;;;;48.97;32.53;;;;;;;;;;5016633;28;20030;-76
2022/09/24 13:57:21;;;;;;;54.17;32.45;;;;;;;;;;5015220;28;20391;-76
2022/09/24 13:59:47;;;;;;;51.03;35.28;;;;;;;;;;5015297;28;20037;-75
2022/09/24 14:02:24;;;;;;;48.85;33.65;;;;;;;;;;5014935;28;20053;-77
2022/09/24 14:04:54;;;;;;;50.92;34.47;;;;;;;;;;5015935;28;20442;-77
2022/09/24 14:07:21;;;;;;;48.88;33.28;;;;;;;;;;5000782;28;20022;-75
2022/09/24 14:09:47;;;;;;;53.85;34.78;;;;;;;;;;5023105;28;20180;-75
2022/09/24 14:12:21;;;;;;;50.83;35.25;;;;;;;;;;4998588;28;20579;-75
2022/09/24 14:14:52;;;;;;;75.22;40.80;;;;;;;;;;5016756;28;20021;-76
2022/09/24 14:17:19;;;;;;;113.65;51.28;;;;;;;;;;5020574;28;20026;-75
2022/09/24 14:19:45;;;;;;;96.82;50.30;;;;;;;;;;5015481;28;20034;-73
2022/09/24 14:22:22;;;;;;;52.25;33.85;;;;;;;;;;5015393;28;20029;-73
2022/09/24 14:24:51;;;;;;;50.33;33.95;;;;;;;;;;5015543;28;20026;-74
2022/09/24 14:27:19;;;;;;;56.00;35.38;;;;;;;;;;5015380;28;20036;-73
2022/09/24 14:29:49;;;;;;;48.05;34.00;;;;;;;;;;5016364;28;20018;-76
2022/09/24 14:32:32;;;;;;;49.33;34.33;;;;;;;;;;5019623;28;20067;-72
2022/09/24 14:35:17;;;;;;;47.92;33.30;;;;;;;;;;5019512;28;20056;-72
2022/09/24 14:37:48;;;;;;;50.25;34.72;;;;;;;;;;5016106;28;20041;-77
2022/09/24 14:40:15;;;;;;;57.95;36.95;;;;;;;;;;5016749;28;20087;-73
2022/09/24 14:42:43;;;;;;;42.70;30.60;;;;;;;;;;5018054;28;20030;-75
2022/09/24 14:45:16;;;;;;;59.75;40.10;;;;;;;;;;5004302;28;20093;-76
2022/09/24 14:47:41;;;;;;;65.82;40.85;;;;;;;;;;5004891;28;20161;-74